Time;durP1;ratioP1;P1;durP2;ratioP2;P2;SDS_P1;SDS_P2;PMS_P1;PMS_P2;Temp;Humidity;BMP_temperature;BMP_pressure;BME280_temperature;BME280_humidity;BME280_pressure;Samples;Min_cycle;Max_cycle;Signal;HPM_P1;HPM_P2
2023/08/30 00:00:07;;;;;;;0.00;0.00;;;;;;;15.93;56.62;100533.16;7362106;19;20086;-58
2023/08/30 00:02:33;;;;;;;0.00;0.00;;;;;;;15.74;56.53;100502.41;7362220;19;20052;-57
2023/08/30 00:05:03;;;;;;;0.00;0.00;;;;;;;15.90;56.62;100533.28;7362403;19;20014;-59
2023/08/30 00:07:28;;;;;;;0.00;0.00;;;;;;;15.83;57.61;100533.59;7364908;19;20011;-59
2023/08/30 00:09:53;;;;;;;0.00;0.00;;;;;;;15.82;57.34;100531.03;7363274;19;20026;-60
2023/08/30 00:12:19;;;;;;;0.10;0.10;;;;;;;15.79;57.55;100542.53;7366570;19;20021;-58
2023/08/30 00:14:44;;;;;;;0.00;0.00;;;;;;;15.77;57.58;100533.88;7360974;19;20006;-60
2023/08/30 00:17:10;;;;;;;0.00;0.00;;;;;;;15.65;57.29;100523.91;7366353;19;20022;-60
2023/08/30 00:19:36;;;;;;;0.00;0.00;;;;;;;15.71;57.88;100534.19;7363310;19;20013;-60
2023/08/30 00:22:01;;;;;;;0.08;0.08;;;;;;;15.66;57.72;100536.16;7363966;19;20106;-59
2023/08/30 00:24:28;;;;;;;0.00;0.00;;;;;;;15.66;57.60;100525.63;7362315;19;20018;-60
2023/08/30 00:26:53;;;;;;;0.00;0.00;;;;;;;15.57;58.17;100512.88;7365649;19;20015;-59
2023/08/30 00:29:19;;;;;;;0.00;0.00;;;;;;;15.61;58.31;100524.94;7366210;19;20034;-60
2023/08/30 00:31:44;;;;;;;0.00;0.00;;;;;;;15.59;58.34;100529.44;7367159;19;20010;-60
2023/08/30 00:34:10;;;;;;;0.10;0.10;;;;;;;15.50;58.76;100514.06;7361189;19;20017;-57
2023/08/30 00:36:35;;;;;;;0.00;0.00;;;;;;;15.52;58.42;100517.50;7362061;19;20011;-60
2023/08/30 00:39:02;;;;;;;0.00;0.00;;;;;;;15.54;58.77;100523.53;7361041;19;20094;-60
2023/08/30 00:41:28;;;;;;;0.00;0.00;;;;;;;15.52;58.56;100523.59;7363453;19;20022;-58
2023/08/30 00:43:53;;;;;;;0.10;0.10;;;;;;;15.52;58.87;100525.38;7360054;19;20017;-60
2023/08/30 00:46:19;;;;;;;0.00;0.00;;;;;;;15.53;58.84;100524.44;7362093;19;20027;-58
2023/08/30 00:48:45;;;;;;;0.03;0.03;;;;;;;15.52;59.15;100513.06;7364142;19;20010;-59
2023/08/30 00:51:10;;;;;;;0.00;0.00;;;;;;;15.52;59.12;100512.22;7362673;19;20007;-60
2023/08/30 00:53:36;;;;;;;0.00;0.00;;;;;;;15.55;59.51;100519.97;7355979;19;20673;-57
2023/08/30 00:56:02;;;;;;;0.00;0.00;;;;;;;15.55;59.41;100512.91;7361751;19;20033;-59
2023/08/30 00:58:28;;;;;;;0.00;0.00;;;;;;;15.58;59.56;100512.78;7364019;19;20530;-60
2023/08/30 01:00:54;;;;;;;0.00;0.00;;;;;;;15.60;59.54;100510.06;7359813;19;20387;-59
2023/08/30 01:03:21;;;;;;;0.10;0.10;;;;;;;15.61;59.53;100517.03;7367489;19;20451;-60
2023/08/30 01:05:47;;;;;;;0.00;0.00;;;;;;;15.63;59.74;100509.09;7365311;19;20784;-57
2023/08/30 01:08:12;;;;;;;0.00;0.00;;;;;;;15.56;59.37;100497.97;7366010;19;20472;-60
2023/08/30 01:10:52;;;;;;;0.00;0.00;;;;;;;15.68;58.24;100512.41;7367352;19;20030;-59
2023/08/30 01:13:19;;;;;;;0.00;0.00;;;;;;;15.67;59.90;100501.00;7364442;19;20011;-59
2023/08/30 01:15:46;;;;;;;;;;;;;;;15.70;55.66;100506.13;7368353;19;20011;-59
2023/08/30 01:18:13;;;;;;;0.00;0.00;;;;;;;15.55;59.37;100481.31;7364002;19;19923;-60
2023/08/30 01:20:42;;;;;;;0.10;0.10;;;;;;;15.65;59.46;100492.31;7365761;19;20520;-58
2023/08/30 01:23:37;;;;;;;0.00;0.00;;;;;;;15.72;58.00;100499.03;7365994;19;20361;-59
2023/08/30 01:26:29;;;;;;;0.00;0.00;;;;;;;15.72;57.77;100499.03;7362687;19;20124;-60
2023/08/30 01:28:56;;;;;;;0.00;0.00;;;;;;;15.70;59.21;100492.94;7362676;19;20022;-60
2023/08/30 01:31:24;;;;;;;0.00;0.00;;;;;;;15.59;59.61;100476.78;7365764;19;20533;-60
2023/08/30 01:33:50;;;;;;;0.10;0.10;;;;;;;15.67;59.87;100490.47;7361293;19;20022;-59
2023/08/30 01:36:16;;;;;;;0.10;0.10;;;;;;;15.58;59.74;100470.66;7366072;19;20539;-59
2023/08/30 01:38:43;;;;;;;0.10;0.10;;;;;;;15.61;60.05;100469.66;7362789;19;20082;-60
2023/08/30 01:41:09;;;;;;;0.10;0.10;;;;;;;15.66;60.13;100473.00;7374760;19;20098;-59
2023/08/30 01:43:35;;;;;;;0.00;0.00;;;;;;;15.66;60.30;100475.63;7368918;19;20030;-60
2023/08/30 01:46:02;;;;;;;0.10;0.10;;;;;;;15.63;60.49;100473.13;7373981;19;20014;-58
2023/08/30 01:48:29;;;;;;;0.00;0.00;;;;;;;15.64;60.10;100477.47;7365302;19;20468;-60
2023/08/30 01:50:58;;;;;;;0.00;0.00;;;;;;;15.53;60.34;100453.38;7365000;19;20006;-60
2023/08/30 01:53:25;;;;;;;0.00;0.00;;;;;;;15.64;60.66;100477.47;7358802;19;20502;-60
2023/08/30 01:55:50;;;;;;;0.00;0.00;;;;;;;15.64;60.62;100473.97;7364918;19;20021;-60
2023/08/30 01:58:16;;;;;;;0.10;0.10;;;;;;;15.64;60.43;100466.06;7359971;19;20007;-58
2023/08/30 02:00:41;;;;;;;0.00;0.00;;;;;;;15.63;60.41;100473.13;7370416;19;20009;-58
2023/08/30 02:03:14;;;;;;;0.00;0.00;;;;;;;15.67;59.81;100473.84;7378340;19;20695;-60
2023/08/30 02:06:05;;;;;;;0.00;0.00;;;;;;;15.66;58.60;100461.56;7379623;19;20012;-60
2023/08/30 02:08:38;;;;;;;0.10;0.10;;;;;;;15.66;60.28;100473.00;7373108;19;20026;-60
2023/08/30 02:11:07;;;;;;;0.00;0.00;;;;;;;15.65;60.55;100462.50;7373962;19;20642;-58
2023/08/30 02:13:34;;;;;;;0.00;0.00;;;;;;;15.64;60.86;100464.28;7368235;19;20692;-59
2023/08/30 02:16:00;;;;;;;0.10;0.10;;;;;;;15.64;60.80;100471.34;7372771;19;20017;-60
2023/08/30 02:18:26;;;;;;;0.00;0.00;;;;;;;15.58;61.18;100469.81;7370204;19;20019;-59
2023/08/30 02:20:52;;;;;;;0.00;0.00;;;;;;;15.55;60.93;100457.63;7371493;19;20054;-59
2023/08/30 02:23:17;;;;;;;0.03;0.03;;;;;;;15.61;61.10;100469.66;7371348;19;20022;-59
2023/08/30 02:25:43;;;;;;;0.10;0.10;;;;;;;15.60;60.93;100473.22;7369686;19;20011;-60
2023/08/30 02:28:08;;;;;;;0.03;0.03;;;;;;;15.57;61.00;100473.38;7368074;19;20451;-59
2023/08/30 02:30:34;;;;;;;0.00;0.00;;;;;;;15.54;61.19;100468.25;7368113;19;20006;-59
2023/08/30 02:32:59;;;;;;;0.00;0.00;;;;;;;15.50;60.54;100467.53;7369178;19;20042;-59
2023/08/30 02:35:24;;;;;;;0.00;0.00;;;;;;;15.47;61.07;100461.59;7366854;19;20007;-60
2023/08/30 02:37:50;;;;;;;0.10;0.10;;;;;;;15.44;60.89;100466.97;7365306;19;20019;-60
2023/08/30 02:40:15;;;;;;;0.10;0.10;;;;;;;15.39;61.27;100464.56;7368290;19;20040;-60
2023/08/30 02:42:41;;;;;;;0.00;0.00;;;;;;;15.36;60.90;100463.84;7369393;19;21043;-57
2023/08/30 02:45:07;;;;;;;0.00;0.00;;;;;;;15.30;61.18;100467.59;7367322;19;20010;-58
2023/08/30 02:47:32;;;;;;;0.00;0.00;;;;;;;15.27;61.63;100460.72;7365691;19;20018;-59
2023/08/30 02:49:57;;;;;;;0.00;0.00;;;;;;;15.22;61.54;100462.72;7365687;19;20053;-58
2023/08/30 02:52:23;;;;;;;0.10;0.10;;;;;;;15.15;61.75;100461.25;7365781;19;20015;-60
2023/08/30 02:54:48;;;;;;;0.00;0.00;;;;;;;15.16;61.05;100468.25;7363807;19;20002;-60
2023/08/30 02:57:14;;;;;;;0.00;0.00;;;;;;;15.13;61.70;100467.53;7370469;19;20094;-58
2023/08/30 02:59:39;;;;;;;0.00;0.00;;;;;;;15.10;61.79;100468.50;7369434;19;20026;-58
2023/08/30 03:02:05;;;;;;;0.00;0.00;;;;;;;15.06;61.74;100459.06;7367421;19;20628;-59
2023/08/30 03:04:30;;;;;;;0.10;0.10;;;;;;;15.03;61.84;100467.09;7368639;19;20604;-60
2023/08/30 03:06:56;;;;;;;0.00;0.00;;;;;;;15.00;61.71;100461.94;7369401;19;20038;-59
2023/08/30 03:09:21;;;;;;;0.00;0.00;;;;;;;14.94;62.22;100452.56;7367524;19;20011;-59
2023/08/30 03:11:46;;;;;;;0.00;0.00;;;;;;;14.92;62.07;100458.84;7366135;19;20018;-59
2023/08/30 03:14:12;;;;;;;0.00;0.00;;;;;;;14.89;62.09;100461.59;7370036;19;20378;-60
2023/08/30 03:16:37;;;;;;;0.00;0.00;;;;;;;14.86;61.99;100464.38;7366002;19;20070;-60
2023/08/30 03:19:03;;;;;;;0.00;0.00;;;;;;;14.85;62.25;100466.16;7346325;19;20042;-60
2023/08/30 03:21:28;;;;;;;0.00;0.00;;;;;;;14.83;62.29;100464.50;7368031;19;20010;-60
2023/08/30 03:23:54;;;;;;;0.00;0.00;;;;;;;14.81;62.22;100466.34;7365239;19;20010;-60
2023/08/30 03:26:19;;;;;;;0.10;0.10;;;;;;;14.79;61.95;100454.09;7369341;19;20018;-60
2023/08/30 03:28:44;;;;;;;0.00;0.00;;;;;;;14.75;62.52;100449.03;7368698;19;20693;-60
2023/08/30 03:31:16;;;;;;;0.00;0.00;;;;;;;14.75;61.99;100452.56;7367471;19;20007;-60
2023/08/30 03:33:43;;;;;;;0.00;0.00;;;;;;;14.73;62.57;100464.03;7367825;19;20015;-59
2023/08/30 03:36:11;;;;;;;0.10;0.10;;;;;;;14.67;62.59;100451.16;7368560;19;20019;-59
2023/08/30 03:38:36;;;;;;;0.10;0.10;;;;;;;14.68;62.83;100456.34;7365744;19;20477;-58
2023/08/30 03:41:05;;;;;;;0.03;0.03;;;;;;;14.65;62.92;100456.50;7369765;19;20011;-59
2023/08/30 03:43:31;;;;;;;0.00;0.00;;;;;;;14.64;62.96;100460.03;7365271;19;20405;-60
2023/08/30 03:45:57;;;;;;;0.00;0.00;;;;;;;14.62;62.54;100461.88;7367018;19;20106;-58
2023/08/30 03:48:23;;;;;;;0.00;0.00;;;;;;;14.60;62.96;100458.47;7370179;19;20691;-59
2023/08/30 03:50:48;;;;;;;0.00;0.00;;;;;;;14.59;63.20;100456.75;7362326;19;20014;-58
2023/08/30 03:53:14;;;;;;;0.00;0.00;;;;;;;14.53;63.03;100457.00;7367985;19;20010;-59
2023/08/30 03:55:40;;;;;;;0.00;0.00;;;;;;;14.55;63.13;100465.69;7367075;19;20038;-60
2023/08/30 03:58:06;;;;;;;0.00;0.00;;;;;;;14.53;63.07;100471.00;7372873;19;20010;-59
2023/08/30 04:00:31;;;;;;;0.10;0.10;;;;;;;14.50;63.22;100467.69;7367442;19;20408;-59
2023/08/30 04:02:57;;;;;;;0.00;0.00;;;;;;;14.50;63.08;100467.69;7366092;19;20014;-59
2023/08/30 04:05:22;;;;;;;0.00;0.00;;;;;;;14.48;63.58;100477.38;7368913;19;21097;-61
2023/08/30 04:07:47;;;;;;;0.00;0.00;;;;;;;14.47;63.48;100473.00;7368301;19;20007;-57
2023/08/30 04:10:13;;;;;;;0.00;0.00;;;;;;;14.45;63.03;100469.59;7366742;19;20002;-58
2023/08/30 04:12:38;;;;;;;0.00;0.00;;;;;;;14.42;63.54;100472.34;7368577;19;20015;-60
2023/08/30 04:15:04;;;;;;;0.00;0.00;;;;;;;14.40;63.81;100466.31;7365529;19;20006;-59
2023/08/30 04:17:29;;;;;;;0.00;0.00;;;;;;;14.39;63.56;100464.59;7367701;19;20018;-60
2023/08/30 04:19:55;;;;;;;0.00;0.00;;;;;;;14.37;63.63;100463.81;7367224;19;20492;-58
2023/08/30 04:22:20;;;;;;;0.10;0.10;;;;;;;14.35;63.83;100466.50;7364140;19;20018;-59
2023/08/30 04:24:46;;;;;;;0.00;0.00;;;;;;;14.23;63.42;100438.97;7361955;19;20003;-61
2023/08/30 04:27:12;;;;;;;0.00;0.00;;;;;;;14.31;63.52;100450.94;7366864;19;20022;-60
2023/08/30 04:29:37;;;;;;;0.00;0.00;;;;;;;14.30;63.48;100454.50;7371734;19;20014;-61
2023/08/30 04:32:03;;;;;;;0.00;0.00;;;;;;;14.26;63.49;100449.34;7369481;19;20023;-60
2023/08/30 04:34:30;;;;;;;0.00;0.00;;;;;;;14.26;63.98;100457.25;7366145;19;20011;-60
2023/08/30 04:36:56;;;;;;;0.00;0.00;;;;;;;14.24;63.83;100456.47;7366752;19;20014;-60
2023/08/30 04:39:21;;;;;;;0.00;0.00;;;;;;;14.22;64.07;100463.53;7367692;19;20021;-61
2023/08/30 04:41:47;;;;;;;0.00;0.00;;;;;;;14.20;64.10;100454.88;7365164;19;20014;-55
2023/08/30 04:44:12;;;;;;;0.00;0.00;;;;;;;14.18;63.67;100467.19;7366213;19;20018;-59
2023/08/30 04:46:37;;;;;;;0.00;0.00;;;;;;;14.16;63.81;100469.03;7365917;19;20572;-60
2023/08/30 04:49:03;;;;;;;0.00;0.00;;;;;;;14.16;63.79;100471.66;7368116;19;20865;-61
2023/08/30 04:51:28;;;;;;;0.10;0.10;;;;;;;14.14;63.60;100470.88;7364530;19;19998;-60
2023/08/30 04:53:54;;;;;;;0.10;0.10;;;;;;;14.13;63.55;100474.41;7361792;19;20010;-60
2023/08/30 04:56:19;;;;;;;0.00;0.00;;;;;;;14.09;63.50;100470.22;7364656;19;20538;-60
2023/08/30 04:58:45;;;;;;;0.00;0.00;;;;;;;14.10;63.95;100471.94;7362136;19;20040;-59
2023/08/30 05:01:13;;;;;;;0.00;0.00;;;;;;;13.97;63.69;100452.31;7372458;19;20018;-59
2023/08/30 05:03:38;;;;;;;0.00;0.00;;;;;;;14.03;63.52;100470.44;7371899;19;20017;-60
2023/08/30 05:06:04;;;;;;;0.00;0.00;;;;;;;14.04;63.88;100472.19;7366398;19;19990;-60
2023/08/30 05:08:29;;;;;;;0.00;0.00;;;;;;;14.02;63.73;100471.38;7366509;19;20035;-60
2023/08/30 05:10:55;;;;;;;0.00;0.00;;;;;;;14.00;63.59;100467.97;7363451;19;19998;-61
2023/08/30 05:13:20;;;;;;;0.00;0.00;;;;;;;13.99;63.65;100466.25;7368260;19;20013;-60
2023/08/30 05:15:45;;;;;;;0.00;0.00;;;;;;;13.97;63.81;100465.44;7363066;19;20013;-59
2023/08/30 05:18:11;;;;;;;0.00;0.00;;;;;;;13.95;63.91;100462.03;7364917;19;20014;-59
2023/08/30 05:20:36;;;;;;;0.00;0.00;;;;;;;13.94;63.81;100470.84;7361387;19;20558;-58
2023/08/30 05:23:02;;;;;;;0.00;0.00;;;;;;;13.79;63.70;100448.69;7365785;19;20052;-59
2023/08/30 05:25:28;;;;;;;0.00;0.00;;;;;;;13.90;63.33;100467.47;7361478;19;20671;-59
2023/08/30 05:27:53;;;;;;;0.00;0.00;;;;;;;13.88;63.53;100468.44;7365155;19;20015;-59
2023/08/30 05:30:19;;;;;;;0.00;0.00;;;;;;;13.86;63.44;100465.88;7364464;19;19999;-59
2023/08/30 05:32:45;;;;;;;0.00;0.00;;;;;;;13.86;63.90;100475.53;7364486;19;20022;-60
2023/08/30 05:35:10;;;;;;;0.00;0.00;;;;;;;13.79;63.66;100458.31;7364525;19;20026;-60
2023/08/30 05:37:35;;;;;;;0.00;0.00;;;;;;;13.82;63.88;100468.69;7372438;19;20925;-61
2023/08/30 05:40:01;;;;;;;0.00;0.00;;;;;;;13.82;63.21;100468.69;7371843;19;20005;-60
2023/08/30 05:42:26;;;;;;;0.00;0.00;;;;;;;13.81;63.95;100467.00;7371836;19;20013;-60
2023/08/30 05:44:53;;;;;;;0.10;0.10;;;;;;;13.80;63.87;100460.03;7369745;19;20491;-58
2023/08/30 05:47:18;;;;;;;0.00;0.00;;;;;;;13.80;63.87;100460.88;7372126;19;20430;-58
2023/08/30 05:49:44;;;;;;;0.10;0.10;;;;;;;13.77;63.86;100459.22;7373876;19;20007;-60
2023/08/30 05:52:09;;;;;;;0.10;0.10;;;;;;;13.76;63.94;100462.78;7366236;19;20014;-60
2023/08/30 05:54:35;;;;;;;0.05;0.05;;;;;;;13.75;63.76;100468.94;7372370;19;20006;-60
2023/08/30 05:57:00;;;;;;;0.00;0.00;;;;;;;13.76;63.79;100468.03;7367986;19;20014;-58
2023/08/30 05:59:26;;;;;;;0.00;0.00;;;;;;;13.75;64.17;100471.56;7367593;19;20002;-60
2023/08/30 06:01:51;;;;;;;0.00;0.00;;;;;;;13.70;64.11;100460.41;7371178;19;20098;-60
2023/08/30 06:04:17;;;;;;;0.00;0.00;;;;;;;13.75;64.54;100468.94;7368637;19;20090;-60
2023/08/30 06:06:42;;;;;;;0.00;0.00;;;;;;;13.76;64.01;100475.88;7371187;19;20386;-61
2023/08/30 06:09:07;;;;;;;0.00;0.00;;;;;;;13.77;64.12;100477.59;7367774;19;20011;-60
2023/08/30 06:11:33;;;;;;;0.03;0.03;;;;;;;13.68;64.23;100454.34;7370761;19;21323;-59
2023/08/30 06:13:59;;;;;;;0.10;0.10;;;;;;;13.79;64.55;100468.81;7370512;19;20709;-58
2023/08/30 06:16:25;;;;;;;0.00;0.00;;;;;;;13.80;64.41;100471.38;7371952;19;20010;-60
2023/08/30 06:18:50;;;;;;;0.00;0.00;;;;;;;13.83;64.32;100478.25;7368245;19;20357;-60
2023/08/30 06:21:16;;;;;;;0.00;0.00;;;;;;;13.86;64.45;100478.16;7368962;19;20011;-58
2023/08/30 06:23:41;;;;;;;0.00;0.00;;;;;;;13.89;65.10;100475.38;7366443;19;20014;-59
2023/08/30 06:26:06;;;;;;;0.00;0.00;;;;;;;13.91;64.61;100468.31;7369685;19;20041;-59
2023/08/30 06:28:32;;;;;;;0.00;0.00;;;;;;;13.94;64.90;100469.06;7367566;19;20062;-59
2023/08/30 06:30:57;;;;;;;0.00;0.00;;;;;;;14.00;64.80;100467.97;7367794;19;20121;-59
2023/08/30 06:33:23;;;;;;;0.10;0.10;;;;;;;13.99;65.07;100456.63;7368285;19;20037;-57
2023/08/30 06:35:50;;;;;;;0.00;0.00;;;;;;;14.08;65.18;100463.22;7369143;19;20021;-59
2023/08/30 06:38:16;;;;;;;0.10;0.10;;;;;;;14.14;65.21;100457.75;7367338;19;20433;-59
2023/08/30 06:40:45;;;;;;;0.00;0.00;;;;;;;14.23;64.51;100465.22;7370299;19;20015;-60
2023/08/30 06:43:11;;;;;;;0.10;0.10;;;;;;;14.26;65.05;100465.13;7370622;19;20358;-59
2023/08/30 06:45:38;;;;;;;0.00;0.00;;;;;;;14.31;64.99;100461.44;7366791;19;20016;-61
2023/08/30 06:48:05;;;;;;;0.00;0.00;;;;;;;14.37;64.72;100466.44;7369131;19;20007;-59
2023/08/30 06:50:31;;;;;;;0.00;0.00;;;;;;;14.43;64.56;100466.19;7371014;19;20779;-58
2023/08/30 06:52:56;;;;;;;0.05;0.05;;;;;;;14.44;64.80;100449.47;7368878;19;20014;-60
2023/08/30 06:55:22;;;;;;;0.00;0.00;;;;;;;14.54;64.69;100456.09;7361692;19;20010;-60
2023/08/30 06:57:49;;;;;;;0.00;0.00;;;;;;;14.60;64.89;100461.09;7369459;19;20007;-59
2023/08/30 07:00:15;;;;;;;;;;;;;;;14.69;62.09;100452.78;7369982;19;20003;-60
2023/08/30 07:02:40;;;;;;;0.00;0.00;;;;;;;14.70;64.62;100449.28;7368095;19;19925;-60
2023/08/30 07:05:06;;;;;;;0.10;0.10;;;;;;;14.71;64.47;100439.59;7366984;19;20003;-59
2023/08/30 07:07:32;;;;;;;0.10;0.10;;;;;;;14.79;64.73;100456.72;7368471;19;20036;-60
2023/08/30 07:09:57;;;;;;;0.10;0.10;;;;;;;14.84;64.85;100455.69;7370155;19;20074;-60
2023/08/30 07:12:23;;;;;;;0.00;0.00;;;;;;;14.87;64.68;100461.66;7367381;19;20119;-58
2023/08/30 07:14:48;;;;;;;0.00;0.00;;;;;;;14.90;64.79;100458.91;7365358;19;20026;-60
2023/08/30 07:17:14;;;;;;;0.08;0.08;;;;;;;14.95;64.51;100458.69;7360311;19;20006;-61
2023/08/30 07:19:39;;;;;;;0.10;0.10;;;;;;;14.99;64.52;100460.25;7376792;19;20038;-58
2023/08/30 07:22:05;;;;;;;0.00;0.00;;;;;;;14.95;64.83;100453.41;7368297;19;20841;-59
2023/08/30 07:24:30;;;;;;;0.00;0.00;;;;;;;15.09;64.62;100466.81;7368702;19;20106;-60
2023/08/30 07:26:56;;;;;;;0.05;0.05;;;;;;;15.14;64.36;100464.81;7363502;19;20031;-60
2023/08/30 07:29:21;;;;;;;0.10;0.10;;;;;;;15.19;64.26;100465.47;7366264;19;20818;-59
2023/08/30 07:31:47;;;;;;;0.05;0.05;;;;;;;15.25;64.72;100478.34;7372920;19;20668;-60
2023/08/30 07:34:12;;;;;;;0.00;0.00;;;;;;;15.30;64.26;100465.81;7369656;19;20006;-61
2023/08/30 07:36:38;;;;;;;0.00;0.00;;;;;;;15.36;64.45;100466.47;7367779;19;20014;-60
2023/08/30 07:39:03;;;;;;;0.00;0.00;;;;;;;15.41;64.16;100467.09;7366890;19;20015;-61
2023/08/30 07:41:29;;;;;;;0.00;0.00;;;;;;;15.40;64.12;100452.25;7362295;19;20006;-60
2023/08/30 07:43:54;;;;;;;0.00;0.00;;;;;;;15.55;64.54;100467.31;7368716;19;20014;-60
2023/08/30 07:46:20;;;;;;;0.00;0.00;;;;;;;15.62;64.30;100452.13;7362259;19;20413;-59
2023/08/30 07:48:45;;;;;;;0.00;0.00;;;;;;;15.70;64.47;100453.47;7368316;19;20015;-60
2023/08/30 07:51:11;;;;;;;0.10;0.10;;;;;;;15.78;64.12;100453.13;7359209;19;20010;-61
2023/08/30 07:53:36;;;;;;;0.00;0.00;;;;;;;15.85;64.10;100441.34;7368176;19;20014;-58
2023/08/30 07:56:01;;;;;;;0.00;0.00;;;;;;;15.93;63.77;100452.38;7359751;19;20030;-60
2023/08/30 07:58:27;;;;;;;0.00;0.00;;;;;;;15.93;64.15;100451.53;7365582;19;20059;-59
2023/08/30 08:00:53;;;;;;;0.10;0.10;;;;;;;16.11;64.05;100458.50;7371383;19;20267;-61
2023/08/30 08:03:22;;;;;;;0.10;0.10;;;;;;;16.18;63.93;100465.19;7373314;19;20497;-61
2023/08/30 08:05:47;;;;;;;0.10;0.10;;;;;;;16.24;63.90;100464.88;7364329;19;20391;-60
2023/08/30 08:08:14;;;;;;;0.00;0.00;;;;;;;16.31;64.23;100463.63;7366823;19;20010;-62
2023/08/30 08:10:41;;;;;;;0.05;0.05;;;;;;;16.42;63.61;100470.13;7367447;19;20088;-60
2023/08/30 08:13:07;;;;;;;0.00;0.00;;;;;;;16.37;63.46;100443.16;7363579;19;20010;-60
2023/08/30 08:15:33;;;;;;;0.08;0.08;;;;;;;16.48;63.63;100451.41;7360995;19;20346;-60
2023/08/30 08:17:59;;;;;;;0.10;0.10;;;;;;;16.60;63.12;100477.13;7362231;19;20018;-60
2023/08/30 08:20:25;;;;;;;0.00;0.00;;;;;;;16.67;63.32;100473.22;7367553;19;20749;-59
2023/08/30 08:22:50;;;;;;;0.08;0.08;;;;;;;16.77;63.31;100474.50;7367806;19;20010;-59
2023/08/30 08:25:15;;;;;;;0.00;0.00;;;;;;;16.89;63.18;100474.81;7362661;19;20015;-60
2023/08/30 08:27:41;;;;;;;0.00;0.00;;;;;;;16.97;63.23;100476.09;7363406;19;20005;-58
2023/08/30 08:30:09;;;;;;;0.08;0.08;;;;;;;17.09;63.16;100469.31;7366865;19;20014;-60
2023/08/30 08:32:34;;;;;;;0.10;0.10;;;;;;;17.18;62.47;100466.16;7369576;19;20458;-60
2023/08/30 08:35:00;;;;;;;0.08;0.08;;;;;;;17.27;62.48;100467.47;7364965;19;20018;-60
2023/08/30 08:37:25;;;;;;;0.00;0.00;;;;;;;17.40;62.05;100475.59;7359044;19;20481;-60
2023/08/30 08:39:51;;;;;;;0.00;0.00;;;;;;;17.48;62.17;100465.44;7363575;19;20505;-61
2023/08/30 08:42:19;;;;;;;0.08;0.08;;;;;;;17.59;61.52;100463.09;7356269;19;20686;-60
2023/08/30 08:44:47;;;;;;;0.10;0.10;;;;;;;17.73;61.70;100465.81;7364515;19;20478;-60
2023/08/30 08:47:14;;;;;;;0.05;0.05;;;;;;;17.85;61.33;100470.44;7363910;19;20065;-60
2023/08/30 08:49:40;;;;;;;0.00;0.00;;;;;;;18.03;61.52;100470.31;7363837;19;20018;-60
2023/08/30 08:52:06;;;;;;;0.03;0.03;;;;;;;18.21;60.72;100469.25;7359686;19;20045;-57
2023/08/30 08:54:31;;;;;;;0.10;0.10;;;;;;;18.41;60.08;100476.88;7361945;19;20010;-61
2023/08/30 08:56:57;;;;;;;0.10;0.10;;;;;;;18.61;59.90;100469.56;7362979;19;20013;-60
2023/08/30 08:59:23;;;;;;;0.00;0.00;;;;;;;18.70;59.43;100450.50;7356667;19;20701;-59
2023/08/30 09:01:49;;;;;;;0.10;0.10;;;;;;;18.97;59.87;100469.16;7358874;19;20715;-60
2023/08/30 09:04:15;;;;;;;0.10;0.10;;;;;;;19.12;58.94;100460.28;7361622;19;20016;-60
2023/08/30 09:06:40;;;;;;;0.10;0.10;;;;;;;19.28;58.45;100475.19;7362885;19;20034;-61
2023/08/30 09:09:08;;;;;;;0.00;0.00;;;;;;;19.41;58.19;100465.50;7362335;19;20020;-60
2023/08/30 09:11:34;;;;;;;0.10;0.10;;;;;;;19.60;58.07;100465.25;7368337;19;20527;-59
2023/08/30 09:13:59;;;;;;;0.00;0.00;;;;;;;19.77;57.92;100472.97;7363195;19;20015;-60
2023/08/30 09:16:25;;;;;;;0.00;0.00;;;;;;;19.89;57.44;100458.91;7362125;19;20035;-59
2023/08/30 09:19:00;;;;;;;0.10;0.10;;;;;;;20.25;57.66;100468.03;7359517;19;20014;-60
2023/08/30 09:21:26;;;;;;;0.10;0.10;;;;;;;20.39;56.99;100465.31;7363795;19;20037;-60
2023/08/30 09:24:03;;;;;;;0.10;0.10;;;;;;;20.65;57.00;100466.22;7364948;19;20014;-61
2023/08/30 09:26:31;;;;;;;0.10;0.10;;;;;;;20.84;55.79;100471.13;7355976;19;20010;-59
2023/08/30 09:29:04;;;;;;;0.05;0.05;;;;;;;21.11;55.80;100467.50;7360016;19;20029;-59
2023/08/30 09:31:38;;;;;;;0.10;0.10;;;;;;;21.33;56.07;100470.34;7339004;19;20018;-58
2023/08/30 09:34:04;;;;;;;0.08;0.08;;;;;;;21.41;54.57;100470.66;7349826;19;20017;-59
2023/08/30 09:36:40;;;;;;;0.10;0.10;;;;;;;21.69;54.42;100473.97;7360082;19;20030;-58
2023/08/30 09:39:09;;;;;;;0.00;0.00;;;;;;;21.82;53.28;100464.16;7361578;19;20452;-59
2023/08/30 09:41:34;;;;;;;0.00;0.00;;;;;;;21.96;53.21;100466.66;7360149;19;20560;-60
2023/08/30 09:44:05;;;;;;;0.03;0.03;;;;;;;22.14;52.86;100471.59;7362025;19;20010;-60
2023/08/30 09:46:31;;;;;;;0.00;0.00;;;;;;;22.35;52.80;100477.94;7361438;19;20014;-60
2023/08/30 09:48:57;;;;;;;0.08;0.08;;;;;;;22.49;51.56;100469.78;7366724;19;20011;-58
2023/08/30 09:51:26;;;;;;;0.10;0.10;;;;;;;22.63;50.85;100473.22;7361195;19;20010;-59
2023/08/30 09:53:58;;;;;;;0.00;0.00;;;;;;;22.68;50.83;100471.03;7362077;19;20010;-60
2023/08/30 09:56:24;;;;;;;0.10;0.10;;;;;;;22.73;50.78;100476.84;7360098;19;20007;-59
2023/08/30 09:58:51;;;;;;;0.00;0.00;;;;;;;22.84;50.86;100478.69;7366996;19;20017;-59
2023/08/30 10:01:16;;;;;;;0.00;0.00;;;;;;;22.93;49.85;100484.19;7362888;19;20242;-61
2023/08/30 10:03:42;;;;;;;0.00;0.00;;;;;;;22.98;50.04;100487.34;7364750;19;20474;-59
2023/08/30 10:06:07;;;;;;;0.10;0.10;;;;;;;23.04;49.41;100481.53;7361273;19;20007;-59
2023/08/30 10:08:34;;;;;;;0.00;0.00;;;;;;;23.10;48.17;100479.34;7366156;19;20597;-59
2023/08/30 10:11:00;;;;;;;0.10;0.10;;;;;;;23.09;48.86;100475.84;7364452;19;20477;-59
2023/08/30 10:13:25;;;;;;;0.00;0.00;;;;;;;23.12;49.51;100472.09;7363779;19;20010;-58
2023/08/30 10:16:01;;;;;;;0.10;0.10;;;;;;;23.27;49.77;100481.53;7366602;19;20097;-58
2023/08/30 10:18:30;;;;;;;0.10;0.10;;;;;;;23.37;49.73;100466.53;7362858;19;20014;-59
2023/08/30 10:20:58;;;;;;;0.03;0.03;;;;;;;23.41;48.98;100470.59;7362524;19;20014;-61
2023/08/30 10:23:25;;;;;;;0.08;0.08;;;;;;;23.60;48.54;100474.47;7367372;19;20765;-60
2023/08/30 10:25:52;;;;;;;;;;;;;;;23.88;51.31;100468.63;7372132;19;20022;-59
2023/08/30 10:28:21;;;;;;;0.10;0.10;;;;;;;23.93;48.61;100452.25;7367097;19;20796;-60
2023/08/30 10:30:47;;;;;;;0.10;0.10;;;;;;;24.24;48.55;100474.56;7369887;19;20010;-60
2023/08/30 10:33:14;;;;;;;0.08;0.08;;;;;;;24.50;48.31;100473.25;7368976;19;20011;-59
2023/08/30 10:35:51;;;;;;;0.00;0.00;;;;;;;24.78;49.56;100461.03;7366525;19;20043;-60
2023/08/30 10:38:28;;;;;;;0.00;0.00;;;;;;;25.15;48.53;100462.41;7367756;19;20021;-59
2023/08/30 10:41:06;;;;;;;0.10;0.10;;;;;;;25.52;48.74;100466.16;7370660;19;20010;-61
2023/08/30 10:43:34;;;;;;;0.00;0.00;;;;;;;25.84;47.02;100471.31;7369525;19;20078;-59
2023/08/30 10:46:06;;;;;;;0.10;0.10;;;;;;;26.28;45.35;100478.97;7369656;19;20023;-59
2023/08/30 10:48:40;;;;;;;0.10;0.10;;;;;;;26.70;46.25;100465.25;7369937;19;20387;-60
2023/08/30 10:51:20;;;;;;;0.10;0.10;;;;;;;27.07;45.40;100466.19;7366757;19;20026;-61
2023/08/30 10:53:58;;;;;;;0.10;0.10;;;;;;;27.31;44.94;100454.91;7369568;19;20070;-59
2023/08/30 10:56:30;;;;;;;0.00;0.00;;;;;;;27.42;43.19;100452.03;7369634;19;20796;-59
2023/08/30 10:58:56;;;;;;;0.10;0.10;;;;;;;27.40;41.67;100451.34;7369126;19;20014;-59
2023/08/30 11:01:23;;;;;;;0.10;0.10;;;;;;;27.47;40.41;100462.28;7364790;19;20097;-60
2023/08/30 11:03:49;;;;;;;0.00;0.00;;;;;;;27.47;41.40;100473.03;7367733;19;20010;-60
2023/08/30 11:06:17;;;;;;;0.00;0.00;;;;;;;27.32;40.91;100459.28;7366465;19;20018;-60
2023/08/30 11:08:43;;;;;;;0.10;0.10;;;;;;;27.32;40.96;100471.84;7372081;19;20772;-60
2023/08/30 11:11:11;;;;;;;0.00;0.00;;;;;;;27.28;40.71;100465.09;7369997;19;20007;-60
2023/08/30 11:13:37;;;;;;;0.03;0.03;;;;;;;27.23;39.99;100459.34;7366419;19;22115;-60
2023/08/30 11:16:04;;;;;;;0.00;0.00;;;;;;;27.25;40.46;100462.69;7368450;19;20006;-59
2023/08/30 11:18:30;;;;;;;0.00;0.00;;;;;;;27.25;41.08;100449.31;7368710;19;20597;-61
2023/08/30 11:21:01;;;;;;;0.03;0.03;;;;;;;27.34;41.75;100461.81;7367370;19;20006;-60
2023/08/30 11:23:26;;;;;;;0.03;0.03;;;;;;;27.34;40.17;100456.47;7363259;19;20477;-60